Terminal Aerodrome Forecast
Issued by NWS

Home | Current Version | Previous Version | Text Only | Print | Product List | Glossary On
Versions: 1 2 3 4 5 6 7 8 9 10 11 12 13 14 15 16 17 18 19 20 21 22 23 24 25 26 27 28
000
FTAK31 PAFA 272320
TAFAOR
TAF
PAOR 272320Z 2800/2824 26007KT P6SM VCTS SCT070CB BKN100
     FM280400 VRB04KT P6SM VCSH SCT035 BKN050 BKN100
     FM282000 31008G14KT P6SM VCSH SCT050 BKN100=

USA.gov is the U.S. government's official web portal to all federal, state and local government web resources and services.